sensor_id;sensor_type;location;lat;lon;timestamp;P1;durP1;ratioP1;P2;durP2;ratioP2
13951;SDS011;39535;52.192;9.886;2024-02-26T00:00:14;1.53;;;1.43;;
13951;SDS011;39535;52.192;9.886;2024-02-26T00:02:41;1.70;;;1.50;;
13951;SDS011;39535;52.192;9.886;2024-02-26T00:05:07;1.57;;;1.47;;
13951;SDS011;39535;52.192;9.886;2024-02-26T00:07:34;1.60;;;1.50;;
13951;SDS011;39535;52.192;9.886;2024-02-26T00:10:00;1.40;;;1.30;;
13951;SDS011;39535;52.192;9.886;2024-02-26T00:12:27;2.60;;;1.80;;
13951;SDS011;39535;52.192;9.886;2024-02-26T00:14:53;3.80;;;1.70;;
13951;SDS011;39535;52.192;9.886;2024-02-26T00:17:21;1.53;;;1.43;;
13951;SDS011;39535;52.192;9.886;2024-02-26T00:19:47;1.90;;;1.60;;
13951;SDS011;39535;52.192;9.886;2024-02-26T00:22:13;1.80;;;1.70;;
13951;SDS011;39535;52.192;9.886;2024-02-26T00:24:40;2.03;;;1.40;;
13951;SDS011;39535;52.192;9.886;2024-02-26T00:27:06;2.60;;;1.40;;
13951;SDS011;39535;52.192;9.886;2024-02-26T00:29:33;1.90;;;1.80;;
13951;SDS011;39535;52.192;9.886;2024-02-26T00:31:59;2.43;;;1.27;;
13951;SDS011;39535;52.192;9.886;2024-02-26T00:34:27;2.27;;;1.70;;
13951;SDS011;39535;52.192;9.886;2024-02-26T00:36:53;2.70;;;1.50;;
13951;SDS011;39535;52.192;9.886;2024-02-26T00:39:19;1.50;;;1.40;;
13951;SDS011;39535;52.192;9.886;2024-02-26T00:41:46;1.70;;;1.57;;
13951;SDS011;39535;52.192;9.886;2024-02-26T00:44:12;1.67;;;1.53;;
13951;SDS011;39535;52.192;9.886;2024-02-26T00:46:39;2.73;;;1.87;;
13951;SDS011;39535;52.192;9.886;2024-02-26T00:49:05;1.60;;;1.50;;
13951;SDS011;39535;52.192;9.886;2024-02-26T00:51:32;1.53;;;1.43;;
13951;SDS011;39535;52.192;9.886;2024-02-26T00:53:59;1.60;;;1.50;;
13951;SDS011;39535;52.192;9.886;2024-02-26T00:56:25;1.77;;;1.67;;
13951;SDS011;39535;52.192;9.886;2024-02-26T00:58:52;1.87;;;1.60;;
13951;SDS011;39535;52.192;9.886;2024-02-26T01:01:18;1.53;;;1.43;;
13951;SDS011;39535;52.192;9.886;2024-02-26T01:03:44;2.60;;;1.60;;
13951;SDS011;39535;52.192;9.886;2024-02-26T01:06:11;1.77;;;1.67;;
13951;SDS011;39535;52.192;9.886;2024-02-26T01:08:38;1.90;;;1.70;;
13951;SDS011;39535;52.192;9.886;2024-02-26T01:11:05;2.03;;;1.70;;
13951;SDS011;39535;52.192;9.886;2024-02-26T01:13:32;1.70;;;1.60;;
13951;SDS011;39535;52.192;9.886;2024-02-26T01:15:58;2.30;;;2.10;;
13951;SDS011;39535;52.192;9.886;2024-02-26T01:18:25;2.30;;;1.90;;
13951;SDS011;39535;52.192;9.886;2024-02-26T01:20:52;2.60;;;1.70;;
13951;SDS011;39535;52.192;9.886;2024-02-26T01:23:19;2.50;;;2.20;;
13951;SDS011;39535;52.192;9.886;2024-02-26T01:25:48;2.33;;;2.13;;
13951;SDS011;39535;52.192;9.886;2024-02-26T01:28:14;2.17;;;1.97;;
13951;SDS011;39535;52.192;9.886;2024-02-26T01:30:41;2.23;;;1.90;;
13951;SDS011;39535;52.192;9.886;2024-02-26T01:33:07;2.13;;;1.83;;
13951;SDS011;39535;52.192;9.886;2024-02-26T01:35:33;2.03;;;1.90;;
13951;SDS011;39535;52.192;9.886;2024-02-26T01:38:00;2.10;;;2.00;;
13951;SDS011;39535;52.192;9.886;2024-02-26T01:40:26;2.73;;;2.03;;
13951;SDS011;39535;52.192;9.886;2024-02-26T01:42:54;2.70;;;2.30;;
13951;SDS011;39535;52.192;9.886;2024-02-26T01:45:21;2.43;;;2.23;;
13951;SDS011;39535;52.192;9.886;2024-02-26T01:47:49;3.63;;;2.20;;
13951;SDS011;39535;52.192;9.886;2024-02-26T01:50:17;2.40;;;2.20;;
13951;SDS011;39535;52.192;9.886;2024-02-26T01:52:43;2.00;;;1.90;;
13951;SDS011;39535;52.192;9.886;2024-02-26T01:55:10;2.30;;;2.20;;
13951;SDS011;39535;52.192;9.886;2024-02-26T01:57:36;2.23;;;2.03;;
13951;SDS011;39535;52.192;9.886;2024-02-26T02:00:05;2.47;;;2.20;;
13951;SDS011;39535;52.192;9.886;2024-02-26T02:02:33;1.93;;;1.83;;
13951;SDS011;39535;52.192;9.886;2024-02-26T02:05:00;2.20;;;2.00;;
13951;SDS011;39535;52.192;9.886;2024-02-26T02:07:27;2.00;;;1.90;;
13951;SDS011;39535;52.192;9.886;2024-02-26T02:09:54;3.60;;;1.90;;
13951;SDS011;39535;52.192;9.886;2024-02-26T02:12:20;2.43;;;2.20;;
13951;SDS011;39535;52.192;9.886;2024-02-26T02:14:47;3.67;;;2.10;;
13951;SDS011;39535;52.192;9.886;2024-02-26T02:17:15;2.00;;;1.90;;
13951;SDS011;39535;52.192;9.886;2024-02-26T02:19:41;2.50;;;2.30;;
13951;SDS011;39535;52.192;9.886;2024-02-26T02:22:09;2.33;;;2.13;;
13951;SDS011;39535;52.192;9.886;2024-02-26T02:24:35;2.40;;;2.20;;
13951;SDS011;39535;52.192;9.886;2024-02-26T02:27:02;3.60;;;2.03;;
13951;SDS011;39535;52.192;9.886;2024-02-26T02:29:29;2.27;;;2.10;;
13951;SDS011;39535;52.192;9.886;2024-02-26T02:31:56;2.10;;;1.90;;
13951;SDS011;39535;52.192;9.886;2024-02-26T02:34:23;2.40;;;2.10;;
13951;SDS011;39535;52.192;9.886;2024-02-26T02:36:51;2.40;;;2.20;;
13951;SDS011;39535;52.192;9.886;2024-02-26T02:39:19;2.13;;;2.03;;
13951;SDS011;39535;52.192;9.886;2024-02-26T02:41:46;2.40;;;2.20;;
13951;SDS011;39535;52.192;9.886;2024-02-26T02:44:13;2.87;;;2.57;;
13951;SDS011;39535;52.192;9.886;2024-02-26T02:46:39;2.40;;;2.20;;
13951;SDS011;39535;52.192;9.886;2024-02-26T02:49:07;2.30;;;2.20;;
13951;SDS011;39535;52.192;9.886;2024-02-26T02:51:35;2.67;;;2.47;;
13951;SDS011;39535;52.192;9.886;2024-02-26T02:54:01;2.50;;;2.30;;
13951;SDS011;39535;52.192;9.886;2024-02-26T02:56:29;2.83;;;2.60;;
13951;SDS011;39535;52.192;9.886;2024-02-26T02:58:55;3.17;;;2.87;;
13951;SDS011;39535;52.192;9.886;2024-02-26T03:01:22;3.17;;;2.90;;
13951;SDS011;39535;52.192;9.886;2024-02-26T03:03:48;3.23;;;3.03;;
13951;SDS011;39535;52.192;9.886;2024-02-26T03:06:16;3.30;;;3.00;;
13951;SDS011;39535;52.192;9.886;2024-02-26T03:08:42;3.27;;;3.07;;
13951;SDS011;39535;52.192;9.886;2024-02-26T03:11:12;3.00;;;2.80;;
13951;SDS011;39535;52.192;9.886;2024-02-26T03:13:40;3.20;;;3.00;;
13951;SDS011;39535;52.192;9.886;2024-02-26T03:16:07;3.43;;;3.00;;
13951;SDS011;39535;52.192;9.886;2024-02-26T03:18:33;3.53;;;3.30;;
13951;SDS011;39535;52.192;9.886;2024-02-26T03:21:00;3.23;;;2.93;;
13951;SDS011;39535;52.192;9.886;2024-02-26T03:23:27;3.60;;;3.30;;
13951;SDS011;39535;52.192;9.886;2024-02-26T03:25:54;3.50;;;3.13;;
13951;SDS011;39535;52.192;9.886;2024-02-26T03:28:21;3.90;;;3.60;;
13951;SDS011;39535;52.192;9.886;2024-02-26T03:30:48;4.70;;;2.90;;
13951;SDS011;39535;52.192;9.886;2024-02-26T03:33:15;4.20;;;2.97;;
13951;SDS011;39535;52.192;9.886;2024-02-26T03:35:41;4.23;;;3.00;;
13951;SDS011;39535;52.192;9.886;2024-02-26T03:38:07;5.80;;;3.30;;
13951;SDS011;39535;52.192;9.886;2024-02-26T03:40:34;3.63;;;3.33;;
13951;SDS011;39535;52.192;9.886;2024-02-26T03:43:00;4.47;;;3.63;;
13951;SDS011;39535;52.192;9.886;2024-02-26T03:45:27;4.30;;;3.90;;
13951;SDS011;39535;52.192;9.886;2024-02-26T03:47:55;4.10;;;3.70;;
13951;SDS011;39535;52.192;9.886;2024-02-26T03:50:21;3.87;;;3.57;;
13951;SDS011;39535;52.192;9.886;2024-02-26T03:52:47;3.50;;;3.30;;
13951;SDS011;39535;52.192;9.886;2024-02-26T03:55:14;3.20;;;2.90;;
13951;SDS011;39535;52.192;9.886;2024-02-26T03:57:40;7.93;;;3.30;;
13951;SDS011;39535;52.192;9.886;2024-02-26T04:00:07;6.20;;;3.40;;
13951;SDS011;39535;52.192;9.886;2024-02-26T04:02:34;3.83;;;3.50;;
13951;SDS011;39535;52.192;9.886;2024-02-26T04:05:02;5.07;;;4.17;;
13951;SDS011;39535;52.192;9.886;2024-02-26T04:07:28;4.53;;;4.13;;
13951;SDS011;39535;52.192;9.886;2024-02-26T04:09:55;6.93;;;4.20;;
13951;SDS011;39535;52.192;9.886;2024-02-26T04:12:22;4.57;;;4.13;;
13951;SDS011;39535;52.192;9.886;2024-02-26T04:14:48;5.60;;;4.03;;
13951;SDS011;39535;52.192;9.886;2024-02-26T04:17:14;5.30;;;3.83;;
13951;SDS011;39535;52.192;9.886;2024-02-26T04:19:41;4.77;;;4.00;;
13951;SDS011;39535;52.192;9.886;2024-02-26T04:22:08;3.30;;;2.83;;
13951;SDS011;39535;52.192;9.886;2024-02-26T04:24:35;4.40;;;4.00;;
13951;SDS011;39535;52.192;9.886;2024-02-26T04:27:02;3.53;;;3.23;;
13951;SDS011;39535;52.192;9.886;2024-02-26T04:29:29;3.90;;;3.57;;
13951;SDS011;39535;52.192;9.886;2024-02-26T04:31:55;3.50;;;3.23;;
13951;SDS011;39535;52.192;9.886;2024-02-26T04:34:21;4.67;;;3.70;;
13951;SDS011;39535;52.192;9.886;2024-02-26T04:36:48;3.57;;;3.27;;
13951;SDS011;39535;52.192;9.886;2024-02-26T04:39:15;3.40;;;3.10;;
13951;SDS011;39535;52.192;9.886;2024-02-26T04:41:42;3.17;;;2.90;;
13951;SDS011;39535;52.192;9.886;2024-02-26T04:44:08;3.43;;;3.10;;
13951;SDS011;39535;52.192;9.886;2024-02-26T04:46:35;3.40;;;3.10;;
13951;SDS011;39535;52.192;9.886;2024-02-26T04:49:01;5.27;;;3.40;;
13951;SDS011;39535;52.192;9.886;2024-02-26T04:51:27;3.33;;;3.13;;
13951;SDS011;39535;52.192;9.886;2024-02-26T04:53:54;3.73;;;3.43;;
13951;SDS011;39535;52.192;9.886;2024-02-26T04:56:21;3.70;;;3.40;;
13951;SDS011;39535;52.192;9.886;2024-02-26T04:58:48;3.07;;;2.87;;
13951;SDS011;39535;52.192;9.886;2024-02-26T05:01:14;3.20;;;3.00;;
13951;SDS011;39535;52.192;9.886;2024-02-26T05:03:41;3.97;;;2.90;;
13951;SDS011;39535;52.192;9.886;2024-02-26T05:06:08;3.70;;;3.40;;
13951;SDS011;39535;52.192;9.886;2024-02-26T05:08:35;3.63;;;3.33;;
13951;SDS011;39535;52.192;9.886;2024-02-26T05:11:03;4.03;;;3.47;;
13951;SDS011;39535;52.192;9.886;2024-02-26T05:13:31;3.60;;;3.30;;
13951;SDS011;39535;52.192;9.886;2024-02-26T05:15:57;3.40;;;3.13;;
13951;SDS011;39535;52.192;9.886;2024-02-26T05:18:23;5.60;;;4.00;;
13951;SDS011;39535;52.192;9.886;2024-02-26T05:20:50;3.30;;;3.03;;
13951;SDS011;39535;52.192;9.886;2024-02-26T05:23:16;4.47;;;3.93;;
13951;SDS011;39535;52.192;9.886;2024-02-26T05:25:42;3.73;;;3.43;;
13951;SDS011;39535;52.192;9.886;2024-02-26T05:28:12;4.17;;;3.87;;
13951;SDS011;39535;52.192;9.886;2024-02-26T05:30:39;3.80;;;3.50;;
13951;SDS011;39535;52.192;9.886;2024-02-26T05:33:06;4.07;;;3.67;;
13951;SDS011;39535;52.192;9.886;2024-02-26T05:35:32;4.07;;;3.77;;
13951;SDS011;39535;52.192;9.886;2024-02-26T05:37:58;3.83;;;3.53;;
13951;SDS011;39535;52.192;9.886;2024-02-26T05:40:25;3.53;;;3.23;;
13951;SDS011;39535;52.192;9.886;2024-02-26T05:42:51;3.63;;;3.33;;
13951;SDS011;39535;52.192;9.886;2024-02-26T05:45:17;3.83;;;3.53;;
13951;SDS011;39535;52.192;9.886;2024-02-26T05:47:45;4.27;;;3.97;;
13951;SDS011;39535;52.192;9.886;2024-02-26T05:50:11;3.70;;;3.43;;
13951;SDS011;39535;52.192;9.886;2024-02-26T05:52:39;4.30;;;4.00;;
13951;SDS011;39535;52.192;9.886;2024-02-26T05:55:06;4.90;;;4.50;;
13951;SDS011;39535;52.192;9.886;2024-02-26T05:57:33;4.17;;;3.87;;
13951;SDS011;39535;52.192;9.886;2024-02-26T06:00:00;4.10;;;3.80;;
13951;SDS011;39535;52.192;9.886;2024-02-26T06:02:28;3.90;;;3.60;;
13951;SDS011;39535;52.192;9.886;2024-02-26T06:04:56;8.30;;;4.07;;
13951;SDS011;39535;52.192;9.886;2024-02-26T06:07:22;4.30;;;3.90;;
13951;SDS011;39535;52.192;9.886;2024-02-26T06:09:49;3.90;;;3.63;;
13951;SDS011;39535;52.192;9.886;2024-02-26T06:12:15;4.23;;;3.93;;
13951;SDS011;39535;52.192;9.886;2024-02-26T06:14:43;4.77;;;4.37;;
13951;SDS011;39535;52.192;9.886;2024-02-26T06:17:09;4.70;;;4.30;;
13951;SDS011;39535;52.192;9.886;2024-02-26T06:19:36;4.57;;;4.23;;
13951;SDS011;39535;52.192;9.886;2024-02-26T06:22:03;5.00;;;4.63;;
13951;SDS011;39535;52.192;9.886;2024-02-26T06:24:30;4.90;;;4.50;;
13951;SDS011;39535;52.192;9.886;2024-02-26T06:26:56;5.23;;;4.73;;
13951;SDS011;39535;52.192;9.886;2024-02-26T06:29:23;5.20;;;4.70;;
13951;SDS011;39535;52.192;9.886;2024-02-26T06:31:49;7.97;;;4.30;;
13951;SDS011;39535;52.192;9.886;2024-02-26T06:34:15;6.50;;;4.47;;
13951;SDS011;39535;52.192;9.886;2024-02-26T06:36:42;4.90;;;4.50;;
13951;SDS011;39535;52.192;9.886;2024-02-26T06:39:09;7.17;;;4.40;;
13951;SDS011;39535;52.192;9.886;2024-02-26T06:41:37;5.07;;;4.70;;
13951;SDS011;39535;52.192;9.886;2024-02-26T06:44:04;5.80;;;5.30;;
13951;SDS011;39535;52.192;9.886;2024-02-26T06:46:31;4.70;;;4.40;;
13951;SDS011;39535;52.192;9.886;2024-02-26T06:48:57;4.63;;;4.27;;
13951;SDS011;39535;52.192;9.886;2024-02-26T06:51:23;5.20;;;4.80;;
13951;SDS011;39535;52.192;9.886;2024-02-26T06:53:50;5.20;;;4.80;;
13951;SDS011;39535;52.192;9.886;2024-02-26T06:56:17;5.80;;;5.30;;
13951;SDS011;39535;52.192;9.886;2024-02-26T06:58:44;5.53;;;5.00;;
13951;SDS011;39535;52.192;9.886;2024-02-26T07:01:11;5.30;;;4.83;;
13951;SDS011;39535;52.192;9.886;2024-02-26T07:03:39;5.90;;;5.40;;
13951;SDS011;39535;52.192;9.886;2024-02-26T07:06:06;5.80;;;5.30;;
13951;SDS011;39535;52.192;9.886;2024-02-26T07:08:32;6.37;;;5.80;;
13951;SDS011;39535;52.192;9.886;2024-02-26T07:10:59;6.40;;;5.90;;
13951;SDS011;39535;52.192;9.886;2024-02-26T07:13:26;6.60;;;6.00;;
13951;SDS011;39535;52.192;9.886;2024-02-26T07:15:53;7.77;;;7.07;;
13951;SDS011;39535;52.192;9.886;2024-02-26T07:18:19;6.97;;;6.47;;
13951;SDS011;39535;52.192;9.886;2024-02-26T07:20:45;12.33;;;9.37;;
13951;SDS011;39535;52.192;9.886;2024-02-26T07:23:12;11.43;;;10.00;;
13951;SDS011;39535;52.192;9.886;2024-02-26T07:25:38;9.40;;;8.60;;
13951;SDS011;39535;52.192;9.886;2024-02-26T07:28:06;16.77;;;15.17;;
13951;SDS011;39535;52.192;9.886;2024-02-26T07:30:33;12.30;;;10.67;;
13951;SDS011;39535;52.192;9.886;2024-02-26T07:32:59;9.67;;;8.73;;
13951;SDS011;39535;52.192;9.886;2024-02-26T07:35:26;7.67;;;7.07;;
13951;SDS011;39535;52.192;9.886;2024-02-26T07:37:53;7.37;;;6.67;;
13951;SDS011;39535;52.192;9.886;2024-02-26T07:40:19;7.60;;;7.00;;
13951;SDS011;39535;52.192;9.886;2024-02-26T07:42:45;12.93;;;11.60;;
13951;SDS011;39535;52.192;9.886;2024-02-26T07:45:12;7.87;;;6.63;;
13951;SDS011;39535;52.192;9.886;2024-02-26T07:47:41;10.00;;;9.10;;
13951;SDS011;39535;52.192;9.886;2024-02-26T07:50:08;8.33;;;7.27;;
13951;SDS011;39535;52.192;9.886;2024-02-26T07:52:36;10.50;;;9.53;;
13951;SDS011;39535;52.192;9.886;2024-02-26T07:55:02;8.07;;;7.37;;
13951;SDS011;39535;52.192;9.886;2024-02-26T07:57:29;9.30;;;8.50;;
13951;SDS011;39535;52.192;9.886;2024-02-26T07:59:56;10.27;;;9.17;;
13951;SDS011;39535;52.192;9.886;2024-02-26T08:02:22;7.67;;;6.97;;
13951;SDS011;39535;52.192;9.886;2024-02-26T08:04:50;29.47;;;16.07;;
13951;SDS011;39535;52.192;9.886;2024-02-26T08:07:16;14.73;;;13.23;;
13951;SDS011;39535;52.192;9.886;2024-02-26T08:09:42;16.23;;;13.67;;
13951;SDS011;39535;52.192;9.886;2024-02-26T08:12:09;14.87;;;12.43;;
13951;SDS011;39535;52.192;9.886;2024-02-26T08:14:35;40.73;;;21.93;;
13951;SDS011;39535;52.192;9.886;2024-02-26T08:17:01;24.07;;;17.13;;
13951;SDS011;39535;52.192;9.886;2024-02-26T08:19:28;14.27;;;11.70;;
13951;SDS011;39535;52.192;9.886;2024-02-26T08:21:55;8.50;;;7.63;;
13951;SDS011;39535;52.192;9.886;2024-02-26T08:24:22;51.47;;;25.37;;
13951;SDS011;39535;52.192;9.886;2024-02-26T08:26:49;94.03;;;36.70;;
13951;SDS011;39535;52.192;9.886;2024-02-26T08:29:15;26.77;;;16.63;;
13951;SDS011;39535;52.192;9.886;2024-02-26T08:31:41;26.77;;;17.33;;
13951;SDS011;39535;52.192;9.886;2024-02-26T08:34:07;8.10;;;6.67;;
13951;SDS011;39535;52.192;9.886;2024-02-26T08:36:34;9.27;;;7.93;;
13951;SDS011;39535;52.192;9.886;2024-02-26T08:39:02;9.93;;;6.77;;
13951;SDS011;39535;52.192;9.886;2024-02-26T08:41:29;14.57;;;10.47;;
13951;SDS011;39535;52.192;9.886;2024-02-26T08:43:55;23.03;;;14.80;;
13951;SDS011;39535;52.192;9.886;2024-02-26T08:46:23;8.10;;;7.10;;
13951;SDS011;39535;52.192;9.886;2024-02-26T08:48:49;6.07;;;5.57;;
13951;SDS011;39535;52.192;9.886;2024-02-26T08:51:15;11.80;;;9.17;;
13951;SDS011;39535;52.192;9.886;2024-02-26T08:53:42;10.77;;;9.57;;
13951;SDS011;39535;52.192;9.886;2024-02-26T08:56:10;30.87;;;18.37;;
13951;SDS011;39535;52.192;9.886;2024-02-26T08:58:41;24.60;;;17.87;;
13951;SDS011;39535;52.192;9.886;2024-02-26T09:01:08;5.53;;;5.10;;
13951;SDS011;39535;52.192;9.886;2024-02-26T09:03:34;7.37;;;6.77;;
13951;SDS011;39535;52.192;9.886;2024-02-26T09:06:01;10.97;;;9.87;;
13951;SDS011;39535;52.192;9.886;2024-02-26T09:08:27;13.30;;;12.00;;
13951;SDS011;39535;52.192;9.886;2024-02-26T09:10:53;9.50;;;8.60;;
13951;SDS011;39535;52.192;9.886;2024-02-26T09:13:21;6.70;;;6.10;;
13951;SDS011;39535;52.192;9.886;2024-02-26T09:15:48;6.13;;;5.60;;
13951;SDS011;39535;52.192;9.886;2024-02-26T09:18:14;5.97;;;5.47;;
13951;SDS011;39535;52.192;9.886;2024-02-26T09:20:41;6.33;;;5.83;;
13951;SDS011;39535;52.192;9.886;2024-02-26T09:23:07;4.57;;;4.23;;
13951;SDS011;39535;52.192;9.886;2024-02-26T09:25:34;5.20;;;4.80;;
13951;SDS011;39535;52.192;9.886;2024-02-26T09:28:01;5.10;;;4.70;;
13951;SDS011;39535;52.192;9.886;2024-02-26T09:30:29;4.60;;;4.27;;
13951;SDS011;39535;52.192;9.886;2024-02-26T09:32:56;4.63;;;4.23;;
13951;SDS011;39535;52.192;9.886;2024-02-26T09:35:22;4.40;;;4.00;;
13951;SDS011;39535;52.192;9.886;2024-02-26T09:37:49;4.27;;;3.97;;
13951;SDS011;39535;52.192;9.886;2024-02-26T09:40:15;4.60;;;4.20;;
13951;SDS011;39535;52.192;9.886;2024-02-26T09:42:42;5.67;;;5.17;;
13951;SDS011;39535;52.192;9.886;2024-02-26T09:45:11;4.53;;;4.20;;
13951;SDS011;39535;52.192;9.886;2024-02-26T09:47:44;5.40;;;4.13;;
13951;SDS011;39535;52.192;9.886;2024-02-26T09:50:13;4.30;;;4.00;;
13951;SDS011;39535;52.192;9.886;2024-02-26T09:52:42;4.37;;;3.83;;
13951;SDS011;39535;52.192;9.886;2024-02-26T09:55:09;4.13;;;3.83;;
13951;SDS011;39535;52.192;9.886;2024-02-26T09:57:36;3.73;;;3.43;;
13951;SDS011;39535;52.192;9.886;2024-02-26T10:00:03;4.10;;;3.80;;
13951;SDS011;39535;52.192;9.886;2024-02-26T10:02:34;4.47;;;4.17;;
13951;SDS011;39535;52.192;9.886;2024-02-26T10:05:04;5.53;;;4.40;;
13951;SDS011;39535;52.192;9.886;2024-02-26T10:07:31;4.13;;;3.83;;
13951;SDS011;39535;52.192;9.886;2024-02-26T10:09:58;4.10;;;3.80;;
13951;SDS011;39535;52.192;9.886;2024-02-26T10:12:27;4.30;;;4.00;;
13951;SDS011;39535;52.192;9.886;2024-02-26T10:14:56;4.13;;;3.83;;
13951;SDS011;39535;52.192;9.886;2024-02-26T10:17:22;4.20;;;3.90;;
13951;SDS011;39535;52.192;9.886;2024-02-26T10:19:49;4.43;;;4.10;;
13951;SDS011;39535;52.192;9.886;2024-02-26T10:22:18;4.07;;;3.67;;
13951;SDS011;39535;52.192;9.886;2024-02-26T10:24:46;5.00;;;4.20;;
13951;SDS011;39535;52.192;9.886;2024-02-26T10:27:13;4.10;;;3.80;;
13951;SDS011;39535;52.192;9.886;2024-02-26T10:29:39;4.63;;;4.23;;
13951;SDS011;39535;52.192;9.886;2024-02-26T10:32:08;5.20;;;4.83;;
13951;SDS011;39535;52.192;9.886;2024-02-26T10:34:36;4.60;;;4.30;;
13951;SDS011;39535;52.192;9.886;2024-02-26T10:37:04;4.13;;;3.83;;
13951;SDS011;39535;52.192;9.886;2024-02-26T10:39:32;4.97;;;4.57;;
13951;SDS011;39535;52.192;9.886;2024-02-26T10:41:59;4.20;;;3.80;;
13951;SDS011;39535;52.192;9.886;2024-02-26T10:44:29;4.00;;;3.60;;
13951;SDS011;39535;52.192;9.886;2024-02-26T10:46:56;3.77;;;3.47;;
13951;SDS011;39535;52.192;9.886;2024-02-26T10:49:23;5.80;;;3.83;;
13951;SDS011;39535;52.192;9.886;2024-02-26T10:51:52;3.97;;;3.67;;
13951;SDS011;39535;52.192;9.886;2024-02-26T10:54:22;7.53;;;3.40;;
13951;SDS011;39535;52.192;9.886;2024-02-26T10:56:52;3.57;;;3.27;;
13951;SDS011;39535;52.192;9.886;2024-02-26T10:59:21;3.90;;;3.60;;
13951;SDS011;39535;52.192;9.886;2024-02-26T11:01:48;3.47;;;3.17;;
13951;SDS011;39535;52.192;9.886;2024-02-26T11:04:15;4.37;;;3.97;;
13951;SDS011;39535;52.192;9.886;2024-02-26T11:06:42;3.53;;;3.23;;
13951;SDS011;39535;52.192;9.886;2024-02-26T11:09:09;3.20;;;3.00;;
13951;SDS011;39535;52.192;9.886;2024-02-26T11:11:38;3.30;;;3.10;;
13951;SDS011;39535;52.192;9.886;2024-02-26T11:14:08;4.40;;;3.53;;
13951;SDS011;39535;52.192;9.886;2024-02-26T11:16:35;3.93;;;3.10;;
13951;SDS011;39535;52.192;9.886;2024-02-26T11:19:05;3.43;;;2.97;;
13951;SDS011;39535;52.192;9.886;2024-02-26T11:21:33;5.10;;;3.53;;
13951;SDS011;39535;52.192;9.886;2024-02-26T11:24:06;4.10;;;3.70;;
13951;SDS011;39535;52.192;9.886;2024-02-26T11:26:34;3.80;;;3.50;;
13951;SDS011;39535;52.192;9.886;2024-02-26T11:29:04;3.70;;;3.40;;
13951;SDS011;39535;52.192;9.886;2024-02-26T11:31:36;3.70;;;3.40;;
13951;SDS011;39535;52.192;9.886;2024-02-26T11:34:04;4.10;;;3.00;;
13951;SDS011;39535;52.192;9.886;2024-02-26T11:36:30;3.30;;;3.03;;
13951;SDS011;39535;52.192;9.886;2024-02-26T11:38:56;4.13;;;3.73;;
13951;SDS011;39535;52.192;9.886;2024-02-26T11:41:23;3.67;;;3.37;;
13951;SDS011;39535;52.192;9.886;2024-02-26T11:43:49;3.27;;;3.07;;
13951;SDS011;39535;52.192;9.886;2024-02-26T11:46:26;2.90;;;2.70;;
13951;SDS011;39535;52.192;9.886;2024-02-26T11:48:56;3.70;;;3.40;;
13951;SDS011;39535;52.192;9.886;2024-02-26T11:51:25;5.90;;;2.93;;
13951;SDS011;39535;52.192;9.886;2024-02-26T11:53:52;3.20;;;2.90;;
13951;SDS011;39535;52.192;9.886;2024-02-26T11:56:20;3.60;;;2.63;;
13951;SDS011;39535;52.192;9.886;2024-02-26T11:58:46;3.10;;;2.90;;
13951;SDS011;39535;52.192;9.886;2024-02-26T12:04:10;3.50;;;3.20;;
13951;SDS011;39535;52.192;9.886;2024-02-26T12:06:40;3.40;;;3.20;;
13951;SDS011;39535;52.192;9.886;2024-02-26T12:09:08;3.40;;;3.20;;
13951;SDS011;39535;52.192;9.886;2024-02-26T12:11:36;3.73;;;3.43;;
13951;SDS011;39535;52.192;9.886;2024-02-26T12:14:05;3.93;;;3.63;;
13951;SDS011;39535;52.192;9.886;2024-02-26T12:16:35;3.20;;;2.90;;
13951;SDS011;39535;52.192;9.886;2024-02-26T12:19:03;3.70;;;3.40;;
13951;SDS011;39535;52.192;9.886;2024-02-26T12:21:32;3.73;;;3.43;;
13951;SDS011;39535;52.192;9.886;2024-02-26T12:24:06;4.00;;;3.70;;
13951;SDS011;39535;52.192;9.886;2024-02-26T12:26:36;4.43;;;4.03;;
13951;SDS011;39535;52.192;9.886;2024-02-26T12:29:02;4.90;;;4.07;;
13951;SDS011;39535;52.192;9.886;2024-02-26T12:31:28;4.60;;;4.20;;
13951;SDS011;39535;52.192;9.886;2024-02-26T12:33:56;4.20;;;3.73;;
13951;SDS011;39535;52.192;9.886;2024-02-26T12:36:22;4.40;;;4.10;;
13951;SDS011;39535;52.192;9.886;2024-02-26T12:38:51;4.80;;;3.87;;
13951;SDS011;39535;52.192;9.886;2024-02-26T12:41:17;4.83;;;4.43;;
13951;SDS011;39535;52.192;9.886;2024-02-26T12:43:44;5.00;;;4.50;;
13951;SDS011;39535;52.192;9.886;2024-02-26T12:46:11;4.50;;;4.20;;
13951;SDS011;39535;52.192;9.886;2024-02-26T12:48:37;6.80;;;4.70;;
13951;SDS011;39535;52.192;9.886;2024-02-26T12:51:04;6.23;;;5.50;;
13951;SDS011;39535;52.192;9.886;2024-02-26T12:53:30;6.23;;;5.67;;
13951;SDS011;39535;52.192;9.886;2024-02-26T12:55:59;5.67;;;5.13;;
13951;SDS011;39535;52.192;9.886;2024-02-26T12:58:25;5.47;;;5.07;;
13951;SDS011;39535;52.192;9.886;2024-02-26T13:00:52;5.80;;;5.30;;
13951;SDS011;39535;52.192;9.886;2024-02-26T13:03:20;5.37;;;4.87;;
13951;SDS011;39535;52.192;9.886;2024-02-26T13:05:48;5.93;;;5.43;;
13951;SDS011;39535;52.192;9.886;2024-02-26T13:08:17;5.93;;;5.43;;
13951;SDS011;39535;52.192;9.886;2024-02-26T13:10:45;5.57;;;5.07;;
13951;SDS011;39535;52.192;9.886;2024-02-26T13:13:14;6.13;;;5.63;;
13951;SDS011;39535;52.192;9.886;2024-02-26T13:15:40;6.77;;;6.17;;
13951;SDS011;39535;52.192;9.886;2024-02-26T13:18:10;6.60;;;6.10;;
13951;SDS011;39535;52.192;9.886;2024-02-26T13:20:37;7.60;;;7.00;;
13951;SDS011;39535;52.192;9.886;2024-02-26T13:23:06;6.33;;;5.73;;
13951;SDS011;39535;52.192;9.886;2024-02-26T13:25:34;6.20;;;5.57;;
13951;SDS011;39535;52.192;9.886;2024-02-26T13:28:07;7.17;;;6.00;;
13951;SDS011;39535;52.192;9.886;2024-02-26T13:30:36;8.93;;;5.97;;
13951;SDS011;39535;52.192;9.886;2024-02-26T13:33:09;6.70;;;6.10;;
13951;SDS011;39535;52.192;9.886;2024-02-26T13:35:36;5.83;;;5.33;;
13951;SDS011;39535;52.192;9.886;2024-02-26T13:38:04;5.97;;;5.47;;
13951;SDS011;39535;52.192;9.886;2024-02-26T13:40:30;6.90;;;6.30;;
13951;SDS011;39535;52.192;9.886;2024-02-26T13:42:56;8.03;;;7.23;;
13951;SDS011;39535;52.192;9.886;2024-02-26T13:45:23;8.20;;;7.40;;
13951;SDS011;39535;52.192;9.886;2024-02-26T13:47:51;9.10;;;8.20;;
13951;SDS011;39535;52.192;9.886;2024-02-26T13:50:18;8.03;;;7.23;;
13951;SDS011;39535;52.192;9.886;2024-02-26T13:52:46;7.87;;;7.10;;
13951;SDS011;39535;52.192;9.886;2024-02-26T13:55:13;7.17;;;6.67;;
13951;SDS011;39535;52.192;9.886;2024-02-26T13:57:40;8.23;;;7.53;;
13951;SDS011;39535;52.192;9.886;2024-02-26T14:00:07;7.27;;;6.67;;
13951;SDS011;39535;52.192;9.886;2024-02-26T14:02:35;7.60;;;7.00;;
13951;SDS011;39535;52.192;9.886;2024-02-26T14:05:03;8.47;;;7.77;;
13951;SDS011;39535;52.192;9.886;2024-02-26T14:07:30;7.43;;;6.77;;
13951;SDS011;39535;52.192;9.886;2024-02-26T14:09:57;7.40;;;6.80;;
13951;SDS011;39535;52.192;9.886;2024-02-26T14:12:23;8.00;;;7.40;;
13951;SDS011;39535;52.192;9.886;2024-02-26T14:14:50;7.93;;;7.33;;
13951;SDS011;39535;52.192;9.886;2024-02-26T14:17:18;7.40;;;6.87;;
13951;SDS011;39535;52.192;9.886;2024-02-26T14:19:44;7.50;;;6.90;;
13951;SDS011;39535;52.192;9.886;2024-02-26T14:22:14;8.07;;;7.37;;
13951;SDS011;39535;52.192;9.886;2024-02-26T14:24:41;7.93;;;7.23;;
13951;SDS011;39535;52.192;9.886;2024-02-26T14:27:08;8.50;;;7.73;;
13951;SDS011;39535;52.192;9.886;2024-02-26T14:29:37;7.67;;;6.97;;
13951;SDS011;39535;52.192;9.886;2024-02-26T14:32:07;8.37;;;7.57;;
13951;SDS011;39535;52.192;9.886;2024-02-26T14:34:34;7.60;;;6.90;;
13951;SDS011;39535;52.192;9.886;2024-02-26T14:37:00;7.87;;;7.17;;
13951;SDS011;39535;52.192;9.886;2024-02-26T14:39:28;8.47;;;7.57;;
13951;SDS011;39535;52.192;9.886;2024-02-26T14:41:56;8.67;;;7.97;;
13951;SDS011;39535;52.192;9.886;2024-02-26T14:44:23;10.00;;;9.00;;
13951;SDS011;39535;52.192;9.886;2024-02-26T14:46:49;9.50;;;8.60;;